Terminal Aerodrome Forecast
Issued by NWS Cleveland, OH

Home | Current Version | Previous Version | Graphics & Text | Print | Product List | Glossary On
Versions: 1 2 3 4 5 6 7 8 9 10 11 12 13 14 15 16 17 18 19 20 21 22 23
014
FTUS41 KCLE 232332
TAFTOL
TAF
KTOL 232332Z 2400/2424 04006KT P6SM BKN070
     FM240300 07008KT 5SM -SHRA OVC020
      TEMPO 2406/2410 2SM -SHRA BR OVC007
     FM241100 14007KT P6SM BKN035
     FM241900 19017G25KT P6SM BKN035=

USA.gov is the U.S. government's official web portal to all federal, state and local government web resources and services.